createdAt,value
2022-11-05T05:10:12.317Z,9.23
2022-11-05T05:12:39.678Z,14.32
2022-11-05T05:15:07.910Z,11.45
2022-11-05T05:17:35.161Z,13.95
2022-11-05T05:20:20.685Z,8.57
2022-11-05T05:22:53.083Z,8.35
2022-11-05T05:25:21.862Z,10.90
2022-11-05T05:27:49.295Z,9.18
2022-11-05T05:30:16.994Z,6.50
2022-11-05T05:32:45.500Z,10.85
2022-11-05T05:35:16.974Z,9.55
2022-11-05T05:37:44.783Z,13.35
2022-11-05T05:40:12.161Z,9.13
2022-11-05T05:42:43.108Z,8.80
2022-11-05T05:45:12.736Z,9.02
2022-11-05T05:47:40.439Z,10.27
2022-11-05T05:50:07.999Z,14.48
2022-11-05T05:52:35.271Z,13.75
2022-11-05T05:55:02.555Z,14.35
2022-11-05T05:57:29.810Z,13.80
2022-11-05T05:59:57.455Z,9.05
2022-11-05T06:02:24.748Z,12.73
2022-11-05T06:04:52.182Z,7.78
2022-11-05T06:07:19.402Z,7.45
2022-11-05T06:09:47.052Z,27.30
2022-11-05T06:12:14.487Z,8.57
2022-11-05T06:14:42.167Z,14.85
2022-11-05T06:17:09.497Z,9.13
2022-11-05T06:19:37.109Z,12.20
2022-11-05T06:22:04.409Z,14.93
2022-11-05T06:24:31.720Z,24.52
2022-11-05T06:26:59.542Z,10.63
2022-11-05T06:29:27.208Z,15.48
2022-11-05T06:31:55.321Z,9.82
2022-11-05T06:34:22.523Z,13.48
2022-11-05T06:36:50.118Z,11.55
2022-11-05T06:39:17.763Z,9.32
2022-11-05T06:42:12.169Z,11.52
2022-11-05T06:44:32.711Z,8.75
2022-11-05T06:47:00.427Z,9.18
2022-11-05T06:49:27.628Z,12.07
2022-11-05T06:51:54.853Z,13.15
2022-11-05T06:54:22.534Z,12.80
2022-11-05T06:56:50.298Z,26.42
2022-11-05T06:59:18.230Z,18.48
2022-11-05T07:01:45.572Z,14.27
2022-11-05T07:04:13.002Z,24.65
2022-11-05T07:06:40.718Z,11.15
2022-11-05T07:09:08.263Z,10.38
2022-11-05T07:11:35.553Z,11.27
2022-11-05T07:14:02.911Z,12.77
2022-11-05T07:16:30.219Z,11.23
2022-11-05T07:18:57.889Z,9.45
2022-11-05T07:21:25.154Z,11.65
2022-11-05T07:23:52.790Z,15.70
2022-11-05T07:26:20.556Z,13.85
2022-11-05T07:28:47.835Z,11.30
2022-11-05T07:31:15.296Z,10.98
2022-11-05T07:33:42.653Z,12.32
2022-11-05T07:36:10.338Z,7.85
2022-11-05T07:38:37.630Z,12.95
2022-11-05T07:41:05.116Z,9.57
2022-11-05T07:43:32.822Z,9.00
2022-11-05T07:46:00.551Z,8.18
2022-11-05T07:48:27.947Z,10.73
2022-11-05T07:50:55.147Z,10.50
2022-11-05T07:53:22.878Z,9.00
2022-11-05T08:00:28.279Z,11.73
2022-11-05T08:03:13.827Z,10.55
2022-11-05T08:05:44.565Z,11.10
2022-11-05T08:08:17.376Z,7.07
2022-11-05T08:10:45.326Z,6.65
2022-11-05T08:13:13.646Z,8.48
2022-11-05T08:15:42.199Z,8.73
2022-11-05T08:18:15.373Z,7.65
2022-11-05T08:20:44.315Z,10.07
2022-11-05T08:23:12.017Z,9.20
2022-11-05T08:25:40.076Z,8.32
2022-11-05T08:28:11.258Z,7.28
2022-11-05T08:30:38.691Z,8.63
2022-11-05T08:33:09.061Z,8.52
2022-11-05T08:35:38.744Z,6.33
2022-11-05T08:38:07.614Z,8.43
2022-11-05T08:40:36.149Z,11.32
2022-11-05T08:43:06.623Z,7.60
2022-11-05T08:45:38.086Z,6.22
2022-11-05T08:50:34.372Z,10.63
2022-11-05T08:53:01.872Z,5.82
2022-11-05T08:55:29.614Z,7.35
2022-11-05T08:57:58.987Z,8.65
2022-11-05T09:00:28.535Z,6.78
2022-11-05T09:02:58.749Z,6.05
2022-11-05T09:05:25.954Z,7.30
2022-11-05T09:07:59.443Z,11.52
2022-11-05T09:10:28.310Z,8.35
2022-11-05T09:12:55.972Z,12.75
2022-11-05T09:15:24.331Z,12.70
2022-11-05T09:17:51.855Z,13.07
2022-11-05T09:20:19.424Z,7.18
2022-11-05T09:22:46.836Z,5.75
2022-11-05T09:25:15.762Z,8.63
2022-11-05T09:27:43.958Z,7.88
2022-11-05T09:30:12.975Z,7.75
2022-11-05T09:32:40.379Z,5.55
2022-11-05T09:35:08.886Z,11.60
2022-11-05T09:37:37.206Z,7.43
2022-11-05T09:40:05.279Z,7.78
2022-11-05T09:42:41.983Z,10.57
2022-11-05T09:45:24.774Z,9.63
2022-11-05T09:47:56.807Z,6.68
2022-11-05T09:50:37.259Z,5.22
2022-11-05T09:53:05.167Z,9.05
2022-11-05T09:55:37.663Z,6.93
2022-11-05T09:58:28.497Z,7.15
2022-11-05T10:00:57.394Z,5.90
2022-11-05T10:03:28.714Z,6.47
2022-11-05T10:06:05.057Z,6.65
2022-11-05T10:08:38.529Z,6.30
2022-11-05T10:11:10.647Z,7.15
2022-11-05T10:13:48.727Z,15.52
2022-11-05T10:16:40.864Z,6.22
2022-11-05T10:24:28.794Z,5.53
2022-11-05T10:26:57.573Z,6.40
2022-11-05T10:29:30.190Z,5.57
2022-11-05T10:31:59.801Z,14.05
2022-11-05T10:34:36.371Z,7.03
2022-11-05T10:37:04.068Z,4.60
2022-11-05T10:39:33.237Z,9.65
2022-11-05T10:42:09.759Z,7.10
2022-11-05T10:44:55.085Z,9.60
2022-11-05T10:47:51.823Z,4.82
2022-11-05T10:50:21.415Z,6.60
2022-11-05T10:52:57.872Z,7.10
2022-11-05T10:55:29.377Z,8.65
2022-11-05T10:58:09.744Z,5.38
2022-11-05T11:00:37.326Z,5.63
2022-11-05T11:03:06.584Z,5.00
2022-11-05T11:05:38.068Z,7.07
2022-11-05T11:08:11.102Z,5.13
2022-11-05T11:10:58.693Z,6.35
2022-11-05T11:13:48.479Z,6.38
2022-11-05T11:16:21.202Z,6.00
2022-11-05T11:18:58.340Z,5.90
2022-11-05T11:21:26.783Z,8.60
2022-11-05T11:24:00.479Z,9.90
2022-11-05T11:26:37.557Z,6.10
2022-11-05T11:29:04.722Z,5.53
2022-11-05T11:31:37.054Z,6.35
2022-11-05T11:34:25.310Z,7.15
2022-11-05T11:36:56.451Z,6.18
2022-11-05T11:39:30.450Z,5.95
2022-11-05T11:42:02.883Z,4.47
2022-11-05T11:44:34.838Z,8.05
2022-11-05T11:47:09.511Z,6.15
2022-11-05T11:49:36.710Z,5.80
2022-11-05T11:52:10.929Z,8.65
2022-11-05T11:54:38.145Z,6.03
2022-11-05T11:57:42.542Z,5.60
2022-11-05T12:00:10.360Z,4.93
2022-11-05T12:02:43.298Z,4.70
2022-11-05T12:05:41.583Z,6.45
2022-11-05T12:08:23.321Z,7.72
2022-11-05T12:10:59.393Z,4.22
2022-11-05T12:13:58.530Z,7.63
2022-11-05T12:16:41.960Z,4.80
2022-11-05T12:19:15.253Z,4.97
2022-11-05T12:22:12.954Z,5.43
2022-11-05T12:24:52.232Z,4.00
2022-11-05T12:27:41.286Z,4.57
2022-11-05T12:30:17.455Z,8.40
2022-11-05T12:32:47.442Z,4.72
2022-11-05T12:35:15.268Z,4.07
2022-11-05T12:37:42.397Z,4.30
2022-11-05T12:40:40.131Z,8.73
2022-11-05T12:43:39.331Z,7.68
2022-11-05T12:46:24.827Z,3.85
2022-11-05T12:49:18.358Z,3.60
2022-11-05T12:51:51.649Z,8.45
2022-11-05T12:54:40.758Z,5.03
2022-11-05T12:57:12.147Z,4.05
2022-11-05T13:00:16.764Z,3.00
2022-11-05T13:03:26.182Z,2.35
2022-11-05T13:06:10.793Z,4.43
2022-11-05T13:09:02.240Z,2.83
2022-11-05T13:11:45.311Z,1.83
2022-11-05T13:14:24.678Z,3.58
2022-11-05T13:17:06.234Z,2.75
2022-11-05T13:19:39.197Z,3.33
2022-11-05T13:22:21.972Z,1.63
2022-11-05T13:24:51.859Z,1.17
2022-11-05T13:27:18.993Z,4.10
2022-11-05T13:29:52.621Z,1.10
2022-11-05T13:32:26.518Z,0.77
2022-11-05T13:34:59.212Z,1.48
2022-11-05T13:37:57.508Z,0.80
2022-11-05T13:40:53.174Z,5.55
2022-11-05T13:43:40.837Z,0.95
2022-11-05T13:46:46.243Z,0.98
2022-11-05T13:49:34.739Z,4.35
2022-11-05T13:52:33.407Z,2.03
2022-11-05T13:55:39.353Z,2.67
2022-11-05T13:58:23.550Z,0.75
2022-11-05T14:01:11.754Z,4.97
2022-11-05T14:03:47.180Z,2.33
2022-11-05T14:06:17.299Z,2.00
2022-11-05T14:08:46.213Z,1.45
2022-11-05T14:11:49.575Z,2.28
2022-11-05T14:14:24.282Z,0.88
2022-11-05T14:17:09.518Z,1.92
2022-11-05T14:19:59.375Z,1.65
2022-11-05T14:22:32.735Z,1.95
2022-11-05T14:25:01.977Z,2.38
2022-11-05T14:27:29.124Z,1.23
2022-11-05T14:29:56.455Z,1.02
2022-11-05T14:32:26.879Z,3.50
2022-11-05T14:34:54.062Z,4.07
2022-11-05T14:37:24.432Z,1.63
2022-11-05T14:39:53.620Z,1.77
2022-11-05T14:42:30.268Z,6.22
2022-11-05T14:44:57.578Z,1.23
2022-11-05T14:47:28.570Z,1.65
2022-11-05T14:50:07.974Z,0.90
2022-11-05T14:52:37.076Z,1.73
2022-11-05T14:55:06.542Z,1.85
2022-11-05T14:57:42.555Z,1.15
2022-11-05T15:00:28.522Z,1.52
2022-11-05T15:03:29.043Z,2.15
2022-11-05T15:06:21.238Z,1.05
2022-11-05T15:08:48.414Z,2.17
2022-11-05T15:11:21.801Z,3.65
2022-11-05T15:14:03.934Z,1.15
2022-11-05T15:16:43.336Z,0.50
2022-11-05T15:19:20.238Z,0.45
2022-11-05T15:21:48.235Z,1.20
2022-11-05T15:24:19.163Z,1.17
2022-11-05T15:26:46.299Z,5.60
2022-11-05T15:29:22.124Z,1.20
2022-11-05T15:31:50.928Z,4.20
2022-11-05T15:34:20.770Z,4.40
2022-11-05T15:36:54.472Z,0.90
2022-11-05T15:39:45.613Z,3.75
2022-11-05T15:42:25.426Z,3.47
2022-11-05T15:44:54.996Z,2.78
2022-11-05T15:47:30.038Z,3.08
2022-11-05T15:50:23.795Z,5.13
2022-11-05T15:52:55.478Z,15.25
2022-11-05T15:55:26.421Z,4.85
2022-11-05T15:57:59.225Z,6.13
2022-11-05T16:00:29.930Z,4.35
2022-11-05T16:03:08.022Z,3.35
2022-11-05T16:05:41.876Z,3.17
2022-11-05T16:08:23.557Z,2.60
2022-11-05T16:10:54.518Z,5.13
2022-11-05T16:13:21.995Z,6.97
2022-11-05T16:15:57.365Z,13.05
2022-11-05T16:18:33.031Z,6.13
2022-11-05T16:21:15.574Z,8.52
2022-11-05T16:23:51.932Z,9.82
2022-11-05T16:26:55.772Z,17.52
2022-11-05T16:29:40.515Z,18.60
2022-11-05T16:32:19.494Z,23.20
2022-11-05T16:35:07.489Z,14.05
2022-11-05T16:37:41.058Z,16.42
2022-11-05T16:40:38.222Z,18.05
2022-11-05T16:43:25.410Z,25.08
2022-11-05T16:46:10.201Z,17.50
2022-11-05T16:48:39.088Z,16.63
2022-11-05T16:51:11.749Z,23.42
2022-11-05T16:53:39.233Z,20.60
2022-11-05T16:56:13.546Z,22.05
2022-11-05T16:58:43.174Z,17.10
2022-11-05T17:01:14.927Z,15.07
2022-11-05T17:06:09.744Z,14.38
2022-11-05T17:08:36.975Z,13.05
2022-11-05T17:11:04.610Z,16.88
2022-11-05T17:13:36.290Z,17.75
2022-11-05T17:16:04.343Z,20.65
2022-11-05T17:18:31.766Z,16.17
2022-11-05T17:20:58.968Z,20.30
2022-11-05T17:23:26.767Z,25.35
2022-11-05T17:25:59.931Z,24.42
2022-11-05T17:28:29.119Z,20.55
2022-11-05T17:30:59.663Z,25.02
2022-11-05T17:33:27.078Z,20.98
2022-11-05T17:35:54.897Z,14.68
2022-11-05T17:38:23.806Z,14.75
2022-11-05T17:40:51.883Z,16.42
2022-11-05T17:43:20.163Z,12.90
2022-11-05T17:45:50.216Z,19.92
2022-11-05T17:48:18.739Z,28.55
2022-11-05T17:50:48.055Z,16.50
2022-11-05T17:53:17.707Z,15.70
2022-11-05T17:55:46.884Z,8.20
2022-11-05T17:58:14.236Z,13.77
2022-11-05T18:00:43.115Z,12.20
2022-11-05T18:03:12.844Z,16.05
2022-11-05T18:05:41.634Z,6.38
2022-11-05T18:08:09.242Z,18.73
2022-11-05T18:10:38.085Z,8.82
2022-11-05T18:13:06.005Z,16.85
2022-11-05T18:15:35.367Z,10.75
2022-11-05T18:18:02.654Z,8.50
2022-11-05T18:20:33.113Z,14.52
2022-11-05T18:23:00.403Z,15.50
2022-11-05T18:25:30.757Z,32.58
2022-11-05T18:27:58.030Z,19.25
2022-11-05T18:30:25.675Z,20.38
2022-11-05T18:32:53.470Z,33.33
2022-11-05T18:35:21.619Z,28.27
2022-11-05T18:37:49.330Z,28.38
2022-11-05T18:40:17.018Z,32.72
2022-11-05T18:42:44.711Z,24.17
2022-11-05T18:45:12.728Z,26.35
2022-11-05T18:47:40.005Z,27.88
2022-11-05T18:50:09.360Z,22.25
2022-11-05T18:52:36.697Z,27.00
2022-11-05T18:55:04.747Z,24.58
2022-11-05T18:57:33.611Z,23.20
2022-11-05T19:00:01.472Z,21.27
2022-11-05T19:02:28.869Z,25.38
2022-11-05T19:05:26.942Z,33.25
2022-11-05T19:07:44.815Z,23.73
2022-11-05T19:10:12.083Z,30.08
2022-11-05T19:12:40.087Z,30.85
2022-11-05T19:15:08.190Z,21.55
2022-11-05T19:17:35.805Z,17.05
2022-11-05T19:20:04.321Z,20.08
2022-11-05T19:22:32.733Z,13.00
2022-11-05T19:25:00.113Z,14.63
2022-11-05T19:27:27.347Z,16.63
2022-11-05T19:29:54.618Z,45.33
2022-11-05T19:32:22.020Z,27.42
2022-11-05T19:34:49.339Z,46.72
2022-11-05T19:37:17.289Z,42.53
2022-11-05T19:39:44.667Z,48.35
2022-11-05T19:42:12.513Z,54.63
2022-11-05T19:44:40.799Z,63.08
2022-11-05T19:47:08.020Z,58.22
2022-11-05T19:49:36.083Z,43.38
2022-11-05T19:52:03.388Z,46.83
2022-11-05T19:54:30.655Z,38.88
2022-11-05T19:56:58.619Z,39.08
2022-11-05T19:59:26.538Z,44.35
2022-11-05T20:01:54.001Z,40.70
2022-11-05T20:04:21.375Z,32.55
2022-11-05T20:06:49.435Z,40.60
2022-11-05T20:09:23.968Z,43.00
2022-11-05T20:11:56.284Z,37.58
2022-11-05T20:14:25.417Z,39.53
2022-11-05T20:16:53.940Z,34.97
2022-11-05T20:19:22.953Z,29.23
2022-11-05T20:21:50.629Z,33.25
2022-11-05T20:24:24.722Z,34.58
2022-11-05T20:26:56.906Z,29.77
2022-11-05T20:29:30.638Z,53.10
2022-11-05T20:32:02.315Z,36.65
2022-11-05T20:34:31.193Z,34.65
2022-11-05T20:36:58.416Z,39.75
2022-11-05T20:39:25.926Z,39.33
2022-11-05T20:41:53.455Z,38.72
2022-11-05T20:44:20.836Z,42.67
2022-11-05T20:46:48.825Z,43.58
2022-11-05T20:49:18.068Z,33.30
2022-11-05T20:51:48.662Z,26.30
2022-11-05T20:54:15.895Z,31.40
2022-11-05T20:56:43.766Z,21.65
2022-11-05T20:59:11.016Z,34.20
2022-11-05T21:01:38.463Z,31.67
2022-11-05T21:04:06.533Z,29.88
2022-11-05T21:06:35.110Z,31.42
2022-11-05T21:09:03.820Z,31.77
2022-11-05T21:11:54.654Z,31.05
2022-11-05T21:14:22.004Z,37.05
2022-11-05T21:16:49.254Z,26.50
2022-11-05T21:19:16.559Z,30.73
2022-11-05T21:21:43.832Z,31.23
2022-11-05T21:24:11.098Z,36.40
2022-11-05T21:26:39.558Z,31.17
2022-11-05T21:29:07.762Z,21.58
2022-11-05T21:31:38.818Z,17.60
2022-11-05T21:34:06.022Z,9.98
2022-11-05T21:36:34.038Z,19.88
2022-11-05T21:39:01.914Z,13.40
2022-11-05T21:41:29.139Z,19.48
2022-11-05T21:43:56.558Z,13.90
2022-11-05T21:46:23.807Z,18.13
2022-11-05T21:48:51.538Z,21.90
2022-11-05T21:51:37.339Z,9.73
2022-11-05T21:54:23.600Z,19.42
2022-11-05T21:57:10.916Z,23.83
2022-11-05T21:59:47.786Z,24.33
2022-11-05T22:02:20.093Z,25.55
2022-11-05T22:04:52.869Z,26.55
2022-11-05T22:07:26.259Z,22.17
2022-11-05T22:09:53.812Z,26.88
2022-11-05T22:12:21.648Z,21.63
2022-11-05T22:14:49.320Z,15.25
2022-11-05T22:17:17.377Z,16.67
2022-11-05T22:19:45.475Z,13.13
2022-11-05T22:22:13.305Z,10.38
2022-11-05T22:24:41.805Z,10.13
2022-11-05T22:27:15.805Z,6.90
2022-11-05T22:29:43.506Z,15.63
2022-11-05T22:32:11.805Z,11.10
2022-11-05T22:34:39.340Z,15.48
2022-11-05T22:37:07.465Z,22.00
2022-11-05T22:39:35.225Z,15.25
2022-11-05T22:42:08.077Z,13.52
2022-11-05T22:44:36.889Z,10.90
2022-11-05T22:47:04.264Z,9.55
2022-11-05T22:49:31.867Z,9.80
2022-11-05T22:51:59.374Z,7.70
2022-11-05T22:54:26.742Z,14.93
2022-11-05T22:56:54.669Z,11.00
2022-11-05T22:59:22.350Z,68.50
2022-11-05T23:01:49.786Z,47.00
2022-11-05T23:04:17.699Z,70.55
2022-11-05T23:07:03.782Z,47.53
2022-11-05T23:09:52.194Z,36.42
2022-11-05T23:12:28.021Z,29.27
2022-11-05T23:14:56.975Z,23.02
2022-11-05T23:17:43.369Z,25.00
2022-11-05T23:20:33.365Z,19.92
2022-11-05T23:23:19.209Z,29.55
2022-11-05T23:25:47.400Z,19.73
2022-11-05T23:28:15.074Z,16.38
2022-11-05T23:31:03.170Z,13.80
2022-11-05T23:33:33.853Z,20.08
2022-11-05T23:36:19.746Z,16.02
2022-11-05T23:38:47.128Z,16.73
2022-11-05T23:41:37.870Z,20.35
2022-11-05T23:44:24.340Z,13.95
2022-11-05T23:47:10.149Z,9.95
2022-11-05T23:49:37.479Z,14.38
2022-11-05T23:52:05.490Z,9.77
2022-11-05T23:54:32.745Z,7.82
2022-11-05T23:57:00.035Z,10.38
2022-11-05T23:59:27.262Z,7.50
